KCIR

Cairo Regional Airport

Cairo, Illinois, USA
METAR KCIR 181435Z AUTO 31003KT 10SM OVC012 24/23 A3000 RMK AO2 LTG DSNT S T02400230
Observed Flight Rules
Aug-18 @ 14:35 UTC (18 minutes ago) Marginal Visual Flight Rules
Wind Visibility Clouds
310° at 3 knots 10 miles
  • Overcast at 1,200' AGL
Temperatures Readings
Current 24°C / 75°F
Dewpoint 23°C / 73°F
Humidity 94%
Altimeter 30" Hg
Pressure 1016 hPa
Elevation 98
METAR KCIR 181435Z AUTO 31003KT 10SM OVC012 24/23 A3000 RMK AO2 LTG DSNT S T02400230
Observed Flight Rules
Aug-18 @ 14:35 UTC
(18 minutes ago)
MVFR
Wind Visibility
310° at 3 knots 10 miles
Clouds
  • Overcast at 1,200' AGL
Temperature Dewpoint
24°C / 75°F 23°C / 73°F
Humidity Altimeter Pressure
94% 30" Hg 1016 hPa